sensor_id;sensor_type;location;lat;lon;timestamp;P1;durP1;ratioP1;P2;durP2;ratioP2
73315;SDS011;61545;53.726;-0.444;2022-08-18T00:04:26;5.5;;;1.6;;
73315;SDS011;61545;53.726;-0.444;2022-08-18T00:09:26;5.5;;;1.6;;
73315;SDS011;61545;53.726;-0.444;2022-08-18T00:14:26;8.1;;;1.4;;
73315;SDS011;61545;53.726;-0.444;2022-08-18T00:19:26;4.9;;;1.5;;
73315;SDS011;61545;53.726;-0.444;2022-08-18T00:24:26;4.9;;;1.3;;
73315;SDS011;61545;53.726;-0.444;2022-08-18T00:29:26;5.4;;;1.4;;
73315;SDS011;61545;53.726;-0.444;2022-08-18T00:34:26;7.2;;;1.7;;
73315;SDS011;61545;53.726;-0.444;2022-08-18T00:39:26;7.2;;;1.7;;
73315;SDS011;61545;53.726;-0.444;2022-08-18T00:44:26;8.9;;;1.4;;
73315;SDS011;61545;53.726;-0.444;2022-08-18T00:49:26;5.8;;;1.6;;
73315;SDS011;61545;53.726;-0.444;2022-08-18T00:54:27;5.5;;;1.5;;
73315;SDS011;61545;53.726;-0.444;2022-08-18T00:59:28;5.2;;;1.5;;
73315;SDS011;61545;53.726;-0.444;2022-08-18T01:04:28;6.2;;;1.7;;
73315;SDS011;61545;53.726;-0.444;2022-08-18T01:09:26;6.2;;;1.7;;
73315;SDS011;61545;53.726;-0.444;2022-08-18T01:14:26;5.3;;;1.6;;
73315;SDS011;61545;53.726;-0.444;2022-08-18T01:19:26;10.7;;;1.9;;
73315;SDS011;61545;53.726;-0.444;2022-08-18T01:24:27;6.3;;;1.7;;
73315;SDS011;61545;53.726;-0.444;2022-08-18T01:29:26;6.2;;;1.5;;
73315;SDS011;61545;53.726;-0.444;2022-08-18T01:34:26;7.6;;;1.8;;
73315;SDS011;61545;53.726;-0.444;2022-08-18T01:39:26;7.6;;;1.8;;
73315;SDS011;61545;53.726;-0.444;2022-08-18T01:44:26;4.3;;;1.5;;
73315;SDS011;61545;53.726;-0.444;2022-08-18T01:49:26;3.6;;;1.6;;
73315;SDS011;61545;53.726;-0.444;2022-08-18T01:54:26;7.2;;;1.7;;
73315;SDS011;61545;53.726;-0.444;2022-08-18T01:59:26;6.5;;;1.9;;
73315;SDS011;61545;53.726;-0.444;2022-08-18T02:04:28;10.0;;;1.9;;
73315;SDS011;61545;53.726;-0.444;2022-08-18T02:09:26;10.0;;;1.9;;
73315;SDS011;61545;53.726;-0.444;2022-08-18T02:14:26;7.0;;;1.5;;
73315;SDS011;61545;53.726;-0.444;2022-08-18T02:19:26;7.7;;;1.8;;
73315;SDS011;61545;53.726;-0.444;2022-08-18T02:24:26;7.9;;;2.1;;
73315;SDS011;61545;53.726;-0.444;2022-08-18T02:29:26;5.0;;;1.8;;
73315;SDS011;61545;53.726;-0.444;2022-08-18T02:34:26;5.9;;;1.7;;
73315;SDS011;61545;53.726;-0.444;2022-08-18T02:39:26;5.9;;;1.7;;
73315;SDS011;61545;53.726;-0.444;2022-08-18T02:44:26;6.9;;;1.6;;
73315;SDS011;61545;53.726;-0.444;2022-08-18T02:49:26;8.3;;;2.2;;
73315;SDS011;61545;53.726;-0.444;2022-08-18T02:54:26;7.0;;;1.6;;
73315;SDS011;61545;53.726;-0.444;2022-08-18T02:59:26;6.9;;;1.7;;
73315;SDS011;61545;53.726;-0.444;2022-08-18T03:04:27;7.0;;;1.8;;
73315;SDS011;61545;53.726;-0.444;2022-08-18T03:09:27;7.0;;;1.8;;
73315;SDS011;61545;53.726;-0.444;2022-08-18T03:14:26;6.7;;;1.7;;
73315;SDS011;61545;53.726;-0.444;2022-08-18T03:19:26;5.6;;;1.7;;
73315;SDS011;61545;53.726;-0.444;2022-08-18T03:24:26;5.2;;;1.6;;
73315;SDS011;61545;53.726;-0.444;2022-08-18T03:29:26;5.9;;;1.7;;
73315;SDS011;61545;53.726;-0.444;2022-08-18T03:34:26;7.5;;;1.9;;
73315;SDS011;61545;53.726;-0.444;2022-08-18T03:39:26;7.5;;;1.9;;
73315;SDS011;61545;53.726;-0.444;2022-08-18T03:44:27;7.5;;;1.5;;
73315;SDS011;61545;53.726;-0.444;2022-08-18T03:49:26;3.2;;;1.4;;
73315;SDS011;61545;53.726;-0.444;2022-08-18T03:54:26;6.6;;;1.9;;
73315;SDS011;61545;53.726;-0.444;2022-08-18T03:59:26;6.7;;;1.6;;
73315;SDS011;61545;53.726;-0.444;2022-08-18T04:04:26;6.1;;;1.5;;
73315;SDS011;61545;53.726;-0.444;2022-08-18T04:09:27;6.1;;;1.5;;
73315;SDS011;61545;53.726;-0.444;2022-08-18T04:14:26;4.8;;;1.4;;
73315;SDS011;61545;53.726;-0.444;2022-08-18T04:19:26;5.9;;;1.8;;
73315;SDS011;61545;53.726;-0.444;2022-08-18T04:24:26;7.5;;;2;;
73315;SDS011;61545;53.726;-0.444;2022-08-18T04:29:26;6.2;;;1.5;;
73315;SDS011;61545;53.726;-0.444;2022-08-18T04:34:26;6.9;;;1.6;;
73315;SDS011;61545;53.726;-0.444;2022-08-18T04:39:26;6.9;;;1.6;;
73315;SDS011;61545;53.726;-0.444;2022-08-18T04:44:26;6.7;;;1.8;;
73315;SDS011;61545;53.726;-0.444;2022-08-18T04:49:26;5.7;;;1.5;;
73315;SDS011;61545;53.726;-0.444;2022-08-18T04:54:26;8.3;;;2;;
73315;SDS011;61545;53.726;-0.444;2022-08-18T04:59:26;4.1;;;1.5;;
73315;SDS011;61545;53.726;-0.444;2022-08-18T05:04:26;6.3;;;1.7;;
73315;SDS011;61545;53.726;-0.444;2022-08-18T05:09:26;6.3;;;1.7;;
73315;SDS011;61545;53.726;-0.444;2022-08-18T05:14:26;5.4;;;1.8;;
73315;SDS011;61545;53.726;-0.444;2022-08-18T05:19:26;7.2;;;1.9;;
73315;SDS011;61545;53.726;-0.444;2022-08-18T05:24:26;5.4;;;2;;
73315;SDS011;61545;53.726;-0.444;2022-08-18T05:29:26;8.8;;;2;;
73315;SDS011;61545;53.726;-0.444;2022-08-18T05:34:26;10.4;;;2.2;;
73315;SDS011;61545;53.726;-0.444;2022-08-18T05:39:27;10.4;;;2.2;;
73315;SDS011;61545;53.726;-0.444;2022-08-18T05:44:28;6.9;;;1.9;;
73315;SDS011;61545;53.726;-0.444;2022-08-18T05:49:26;9.7;;;2;;
73315;SDS011;61545;53.726;-0.444;2022-08-18T05:54:27;9.1;;;1.9;;
73315;SDS011;61545;53.726;-0.444;2022-08-18T05:59:26;6.5;;;1.8;;
73315;SDS011;61545;53.726;-0.444;2022-08-18T06:04:32;7.4;;;1.9;;
73315;SDS011;61545;53.726;-0.444;2022-08-18T06:09:28;7.4;;;1.9;;
73315;SDS011;61545;53.726;-0.444;2022-08-18T06:14:26;9.2;;;2.3;;
73315;SDS011;61545;53.726;-0.444;2022-08-18T06:19:32;7.1;;;2.2;;
73315;SDS011;61545;53.726;-0.444;2022-08-18T06:24:28;6.0;;;1.7;;
73315;SDS011;61545;53.726;-0.444;2022-08-18T06:29:35;8.0;;;2.1;;
73315;SDS011;61545;53.726;-0.444;2022-08-18T06:34:31;7.8;;;2.1;;
73315;SDS011;61545;53.726;-0.444;2022-08-18T06:39:28;7.8;;;2.1;;
73315;SDS011;61545;53.726;-0.444;2022-08-18T06:44:29;11.4;;;1.9;;
73315;SDS011;61545;53.726;-0.444;2022-08-18T06:49:33;10.8;;;2.2;;
73315;SDS011;61545;53.726;-0.444;2022-08-18T06:54:27;9.5;;;2.2;;
73315;SDS011;61545;53.726;-0.444;2022-08-18T06:59:27;8.6;;;3.1;;
73315;SDS011;61545;53.726;-0.444;2022-08-18T07:04:42;8.3;;;2.2;;
73315;SDS011;61545;53.726;-0.444;2022-08-18T07:09:32;8.3;;;2.2;;
73315;SDS011;61545;53.726;-0.444;2022-08-18T07:14:26;7.3;;;2.4;;
73315;SDS011;61545;53.726;-0.444;2022-08-18T07:19:27;8.6;;;2.4;;
73315;SDS011;61545;53.726;-0.444;2022-08-18T07:24:27;7.0;;;2.1;;
73315;SDS011;61545;53.726;-0.444;2022-08-18T07:29:26;6.7;;;2.2;;
73315;SDS011;61545;53.726;-0.444;2022-08-18T07:34:27;8.0;;;1.9;;
73315;SDS011;61545;53.726;-0.444;2022-08-18T07:39:26;8.0;;;1.9;;
73315;SDS011;61545;53.726;-0.444;2022-08-18T07:44:39;7.7;;;2.4;;
73315;SDS011;61545;53.726;-0.444;2022-08-18T07:49:27;6.1;;;1.9;;
73315;SDS011;61545;53.726;-0.444;2022-08-18T07:54:37;6.3;;;1.7;;
73315;SDS011;61545;53.726;-0.444;2022-08-18T07:59:28;7.0;;;2.5;;
73315;SDS011;61545;53.726;-0.444;2022-08-18T08:04:28;7.0;;;1.9;;
73315;SDS011;61545;53.726;-0.444;2022-08-18T08:09:29;7.0;;;1.9;;
73315;SDS011;61545;53.726;-0.444;2022-08-18T08:14:34;9.3;;;2.4;;
73315;SDS011;61545;53.726;-0.444;2022-08-18T08:19:39;6.5;;;2.2;;
73315;SDS011;61545;53.726;-0.444;2022-08-18T08:24:28;5.3;;;2.1;;
73315;SDS011;61545;53.726;-0.444;2022-08-18T08:29:31;4.6;;;1.9;;
73315;SDS011;61545;53.726;-0.444;2022-08-18T08:34:27;4.8;;;2;;
73315;SDS011;61545;53.726;-0.444;2022-08-18T08:39:30;4.8;;;2;;
73315;SDS011;61545;53.726;-0.444;2022-08-18T08:44:29;8.1;;;2.5;;
73315;SDS011;61545;53.726;-0.444;2022-08-18T08:49:30;5.9;;;2.2;;
73315;SDS011;61545;53.726;-0.444;2022-08-18T08:54:29;6.2;;;1.9;;
73315;SDS011;61545;53.726;-0.444;2022-08-18T08:59:26;5.0;;;1.8;;
73315;SDS011;61545;53.726;-0.444;2022-08-18T09:04:32;5.1;;;1.9;;
73315;SDS011;61545;53.726;-0.444;2022-08-18T09:09:42;5.1;;;1.9;;
73315;SDS011;61545;53.726;-0.444;2022-08-18T09:14:51;4.5;;;1.5;;
73315;SDS011;61545;53.726;-0.444;2022-08-18T09:19:35;9.8;;;1.4;;
73315;SDS011;61545;53.726;-0.444;2022-08-18T09:24:27;3.3;;;1;;
73315;SDS011;61545;53.726;-0.444;2022-08-18T09:34:34;6.1;;;1.7;;
73315;SDS011;61545;53.726;-0.444;2022-08-18T09:39:28;6.1;;;1.7;;
73315;SDS011;61545;53.726;-0.444;2022-08-18T09:45:01;4.1;;;1.4;;
73315;SDS011;61545;53.726;-0.444;2022-08-18T09:49:58;4.5;;;1.6;;
73315;SDS011;61545;53.726;-0.444;2022-08-18T09:54:27;4.3;;;1.8;;
73315;SDS011;61545;53.726;-0.444;2022-08-18T10:00:17;2.7;;;1.2;;
73315;SDS011;61545;53.726;-0.444;2022-08-18T10:04:29;7.4;;;1.6;;
73315;SDS011;61545;53.726;-0.444;2022-08-18T10:09:31;7.4;;;1.6;;
73315;SDS011;61545;53.726;-0.444;2022-08-18T10:14:33;5.6;;;2;;
73315;SDS011;61545;53.726;-0.444;2022-08-18T10:19:30;5.9;;;1.8;;
73315;SDS011;61545;53.726;-0.444;2022-08-18T10:24:27;4.5;;;1.8;;
73315;SDS011;61545;53.726;-0.444;2022-08-18T10:29:44;5.4;;;1.9;;
73315;SDS011;61545;53.726;-0.444;2022-08-18T10:34:36;6.2;;;2;;
73315;SDS011;61545;53.726;-0.444;2022-08-18T10:39:30;6.2;;;2;;
73315;SDS011;61545;53.726;-0.444;2022-08-18T10:44:26;5.8;;;2;;
73315;SDS011;61545;53.726;-0.444;2022-08-18T10:49:27;8.9;;;2.9;;
73315;SDS011;61545;53.726;-0.444;2022-08-18T10:54:30;8.4;;;2.6;;
73315;SDS011;61545;53.726;-0.444;2022-08-18T10:59:27;10.6;;;2.9;;
73315;SDS011;61545;53.726;-0.444;2022-08-18T11:04:28;7.1;;;2.6;;
73315;SDS011;61545;53.726;-0.444;2022-08-18T11:09:27;7.1;;;2.6;;
73315;SDS011;61545;53.726;-0.444;2022-08-18T11:14:39;4.5;;;2.4;;
73315;SDS011;61545;53.726;-0.444;2022-08-18T11:19:26;6.0;;;2.7;;
73315;SDS011;61545;53.726;-0.444;2022-08-18T11:24:27;7.6;;;3.2;;
73315;SDS011;61545;53.726;-0.444;2022-08-18T11:29:28;5.2;;;3;;
73315;SDS011;61545;53.726;-0.444;2022-08-18T11:34:29;7.5;;;3.4;;
73315;SDS011;61545;53.726;-0.444;2022-08-18T11:39:26;7.5;;;3.4;;
73315;SDS011;61545;53.726;-0.444;2022-08-18T11:44:29;7.0;;;3.5;;
73315;SDS011;61545;53.726;-0.444;2022-08-18T11:49:29;5.5;;;3.6;;
73315;SDS011;61545;53.726;-0.444;2022-08-18T11:54:33;4.4;;;2.9;;
73315;SDS011;61545;53.726;-0.444;2022-08-18T11:59:30;7.1;;;3.5;;
73315;SDS011;61545;53.726;-0.444;2022-08-18T12:04:30;7.4;;;3.7;;
73315;SDS011;61545;53.726;-0.444;2022-08-18T12:09:31;7.4;;;3.7;;
73315;SDS011;61545;53.726;-0.444;2022-08-18T12:14:27;3.9;;;3;;
73315;SDS011;61545;53.726;-0.444;2022-08-18T12:19:26;8.9;;;4.2;;
73315;SDS011;61545;53.726;-0.444;2022-08-18T12:24:27;7.5;;;4.1;;
73315;SDS011;61545;53.726;-0.444;2022-08-18T12:29:26;8.5;;;4.2;;
73315;SDS011;61545;53.726;-0.444;2022-08-18T12:34:26;6.8;;;3.3;;
73315;SDS011;61545;53.726;-0.444;2022-08-18T12:39:26;6.8;;;3.3;;
73315;SDS011;61545;53.726;-0.444;2022-08-18T12:44:26;4.0;;;3.1;;
73315;SDS011;61545;53.726;-0.444;2022-08-18T12:49:26;6.2;;;3.5;;
73315;SDS011;61545;53.726;-0.444;2022-08-18T12:54:26;7.0;;;3.6;;
73315;SDS011;61545;53.726;-0.444;2022-08-18T12:59:26;6.1;;;3.7;;
73315;SDS011;61545;53.726;-0.444;2022-08-18T13:04:26;6.1;;;3.7;;
73315;SDS011;61545;53.726;-0.444;2022-08-18T13:09:26;5.3;;;3.4;;
73315;SDS011;61545;53.726;-0.444;2022-08-18T13:14:26;6.6;;;3.3;;
73315;SDS011;61545;53.726;-0.444;2022-08-18T13:19:26;6.4;;;3.3;;
73315;SDS011;61545;53.726;-0.444;2022-08-18T13:24:26;6.4;;;3;;
73315;SDS011;61545;53.726;-0.444;2022-08-18T13:29:26;6.1;;;2.7;;
73315;SDS011;61545;53.726;-0.444;2022-08-18T13:34:26;6.1;;;2.7;;
73315;SDS011;61545;53.726;-0.444;2022-08-18T13:39:26;6.6;;;3.2;;
73315;SDS011;61545;53.726;-0.444;2022-08-18T13:44:26;5.1;;;2.7;;
73315;SDS011;61545;53.726;-0.444;2022-08-18T13:49:26;5.0;;;3.1;;
73315;SDS011;61545;53.726;-0.444;2022-08-18T13:54:27;8.5;;;3.6;;
73315;SDS011;61545;53.726;-0.444;2022-08-18T13:59:26;7.5;;;3.5;;
73315;SDS011;61545;53.726;-0.444;2022-08-18T14:04:26;7.5;;;3.5;;
73315;SDS011;61545;53.726;-0.444;2022-08-18T14:09:26;6.6;;;3.8;;
73315;SDS011;61545;53.726;-0.444;2022-08-18T14:14:26;4.8;;;3.3;;
73315;SDS011;61545;53.726;-0.444;2022-08-18T14:19:26;8.8;;;4.3;;
73315;SDS011;61545;53.726;-0.444;2022-08-18T14:24:26;7.1;;;3.6;;
73315;SDS011;61545;53.726;-0.444;2022-08-18T14:29:26;9.3;;;4.1;;
73315;SDS011;61545;53.726;-0.444;2022-08-18T14:34:26;9.3;;;4.1;;
73315;SDS011;61545;53.726;-0.444;2022-08-18T14:39:26;9.4;;;3.8;;
73315;SDS011;61545;53.726;-0.444;2022-08-18T14:44:26;9.0;;;4.6;;
73315;SDS011;61545;53.726;-0.444;2022-08-18T14:49:26;8.5;;;4;;
73315;SDS011;61545;53.726;-0.444;2022-08-18T14:54:26;10.4;;;4.6;;
73315;SDS011;61545;53.726;-0.444;2022-08-18T14:59:26;9.3;;;3.6;;
73315;SDS011;61545;53.726;-0.444;2022-08-18T15:04:26;9.3;;;3.6;;
73315;SDS011;61545;53.726;-0.444;2022-08-18T15:09:26;6.8;;;3.9;;
73315;SDS011;61545;53.726;-0.444;2022-08-18T15:14:27;7.0;;;3.9;;
73315;SDS011;61545;53.726;-0.444;2022-08-18T15:19:26;6.0;;;3.7;;
73315;SDS011;61545;53.726;-0.444;2022-08-18T15:24:26;7.4;;;3.9;;
73315;SDS011;61545;53.726;-0.444;2022-08-18T15:29:26;6.4;;;3.9;;
73315;SDS011;61545;53.726;-0.444;2022-08-18T15:34:26;6.4;;;3.9;;
73315;SDS011;61545;53.726;-0.444;2022-08-18T15:39:26;8.7;;;4.2;;
73315;SDS011;61545;53.726;-0.444;2022-08-18T15:44:26;5.1;;;3;;
73315;SDS011;61545;53.726;-0.444;2022-08-18T15:49:26;7.1;;;3.8;;
73315;SDS011;61545;53.726;-0.444;2022-08-18T15:54:26;5.4;;;3.8;;
73315;SDS011;61545;53.726;-0.444;2022-08-18T15:59:26;6.5;;;3.8;;
73315;SDS011;61545;53.726;-0.444;2022-08-18T16:04:26;6.5;;;3.8;;
73315;SDS011;61545;53.726;-0.444;2022-08-18T16:09:26;6.6;;;3.6;;
73315;SDS011;61545;53.726;-0.444;2022-08-18T16:14:26;10.1;;;4;;
73315;SDS011;61545;53.726;-0.444;2022-08-18T16:19:26;6.4;;;3.7;;
73315;SDS011;61545;53.726;-0.444;2022-08-18T16:24:26;6.3;;;3.8;;
73315;SDS011;61545;53.726;-0.444;2022-08-18T16:29:26;6.6;;;4.5;;
73315;SDS011;61545;53.726;-0.444;2022-08-18T16:34:26;6.6;;;4.5;;
73315;SDS011;61545;53.726;-0.444;2022-08-18T16:39:26;6.1;;;4;;
73315;SDS011;61545;53.726;-0.444;2022-08-18T16:44:26;7.2;;;4.7;;
73315;SDS011;61545;53.726;-0.444;2022-08-18T16:49:26;9.6;;;4.7;;
73315;SDS011;61545;53.726;-0.444;2022-08-18T16:54:26;7.4;;;4.8;;
73315;SDS011;61545;53.726;-0.444;2022-08-18T16:59:26;9.0;;;4.5;;
73315;SDS011;61545;53.726;-0.444;2022-08-18T17:04:28;9.0;;;4.5;;
73315;SDS011;61545;53.726;-0.444;2022-08-18T17:09:26;7.4;;;4.4;;
73315;SDS011;61545;53.726;-0.444;2022-08-18T17:14:27;7.2;;;4.3;;
73315;SDS011;61545;53.726;-0.444;2022-08-18T17:19:27;6.6;;;4.4;;
73315;SDS011;61545;53.726;-0.444;2022-08-18T17:24:26;10.7;;;4.6;;
73315;SDS011;61545;53.726;-0.444;2022-08-18T17:29:27;6.6;;;4;;
73315;SDS011;61545;53.726;-0.444;2022-08-18T17:34:31;6.6;;;4;;
73315;SDS011;61545;53.726;-0.444;2022-08-18T17:39:28;5.8;;;4.2;;
73315;SDS011;61545;53.726;-0.444;2022-08-18T17:44:26;7.6;;;4.5;;
73315;SDS011;61545;53.726;-0.444;2022-08-18T17:49:30;7.5;;;4.8;;
73315;SDS011;61545;53.726;-0.444;2022-08-18T17:54:28;9.9;;;4.8;;
73315;SDS011;61545;53.726;-0.444;2022-08-18T17:59:27;9.0;;;4.7;;
73315;SDS011;61545;53.726;-0.444;2022-08-18T18:04:26;9.0;;;4.7;;
73315;SDS011;61545;53.726;-0.444;2022-08-18T18:09:28;7.7;;;4.5;;
73315;SDS011;61545;53.726;-0.444;2022-08-18T18:14:27;6.9;;;4.2;;
73315;SDS011;61545;53.726;-0.444;2022-08-18T18:19:26;8.4;;;5.3;;
73315;SDS011;61545;53.726;-0.444;2022-08-18T18:24:29;7.8;;;5.3;;
73315;SDS011;61545;53.726;-0.444;2022-08-18T18:29:26;6.8;;;4.4;;
73315;SDS011;61545;53.726;-0.444;2022-08-18T18:34:29;6.8;;;4.4;;
73315;SDS011;61545;53.726;-0.444;2022-08-18T18:39:27;10.0;;;5.9;;
73315;SDS011;61545;53.726;-0.444;2022-08-18T18:44:27;8.1;;;5.4;;
73315;SDS011;61545;53.726;-0.444;2022-08-18T18:49:30;7.2;;;4.8;;
73315;SDS011;61545;53.726;-0.444;2022-08-18T18:54:35;11.0;;;5.2;;
73315;SDS011;61545;53.726;-0.444;2022-08-18T18:59:34;6.9;;;4.5;;
73315;SDS011;61545;53.726;-0.444;2022-08-18T19:04:28;6.9;;;4.5;;
73315;SDS011;61545;53.726;-0.444;2022-08-18T19:09:29;5.4;;;4.2;;
73315;SDS011;61545;53.726;-0.444;2022-08-18T19:14:27;8.7;;;4.6;;
73315;SDS011;61545;53.726;-0.444;2022-08-18T19:19:28;6.0;;;3.5;;
73315;SDS011;61545;53.726;-0.444;2022-08-18T19:24:26;7.6;;;4.5;;
73315;SDS011;61545;53.726;-0.444;2022-08-18T19:29:28;8.7;;;5.4;;
73315;SDS011;61545;53.726;-0.444;2022-08-18T19:34:28;8.7;;;5.4;;
73315;SDS011;61545;53.726;-0.444;2022-08-18T19:39:30;6.6;;;4.7;;
73315;SDS011;61545;53.726;-0.444;2022-08-18T19:44:30;7.1;;;4.5;;
73315;SDS011;61545;53.726;-0.444;2022-08-18T19:49:29;7.4;;;4.6;;
73315;SDS011;61545;53.726;-0.444;2022-08-18T19:54:36;6.8;;;4;;
73315;SDS011;61545;53.726;-0.444;2022-08-18T19:59:33;9.2;;;5.3;;
73315;SDS011;61545;53.726;-0.444;2022-08-18T20:04:37;9.2;;;5.3;;
73315;SDS011;61545;53.726;-0.444;2022-08-18T20:09:36;9.3;;;5.1;;
73315;SDS011;61545;53.726;-0.444;2022-08-18T20:14:26;5.9;;;3.9;;
73315;SDS011;61545;53.726;-0.444;2022-08-18T20:19:46;6.7;;;2.9;;
73315;SDS011;61545;53.726;-0.444;2022-08-18T20:24:37;2.9;;;2.1;;
73315;SDS011;61545;53.726;-0.444;2022-08-18T20:29:40;4.1;;;2.5;;
73315;SDS011;61545;53.726;-0.444;2022-08-18T20:34:27;4.1;;;2.5;;
73315;SDS011;61545;53.726;-0.444;2022-08-18T20:39:32;4.5;;;2.5;;
73315;SDS011;61545;53.726;-0.444;2022-08-18T20:44:35;5.6;;;2.4;;
73315;SDS011;61545;53.726;-0.444;2022-08-18T20:49:29;4.3;;;2.5;;
73315;SDS011;61545;53.726;-0.444;2022-08-18T20:54:36;6.2;;;2.9;;
73315;SDS011;61545;53.726;-0.444;2022-08-18T20:59:29;7.7;;;2.9;;
73315;SDS011;61545;53.726;-0.444;2022-08-18T21:04:58;7.7;;;2.9;;
73315;SDS011;61545;53.726;-0.444;2022-08-18T21:09:26;10.2;;;3.2;;
73315;SDS011;61545;53.726;-0.444;2022-08-18T21:14:27;8.2;;;3.4;;
73315;SDS011;61545;53.726;-0.444;2022-08-18T21:19:27;9.8;;;3.2;;
73315;SDS011;61545;53.726;-0.444;2022-08-18T21:24:28;6.2;;;3;;
73315;SDS011;61545;53.726;-0.444;2022-08-18T21:29:26;10.9;;;3;;
73315;SDS011;61545;53.726;-0.444;2022-08-18T21:34:29;10.9;;;3;;
73315;SDS011;61545;53.726;-0.444;2022-08-18T21:39:26;9.3;;;3.5;;
73315;SDS011;61545;53.726;-0.444;2022-08-18T21:44:32;11.0;;;3.6;;
73315;SDS011;61545;53.726;-0.444;2022-08-18T21:49:26;8.1;;;3.6;;
73315;SDS011;61545;53.726;-0.444;2022-08-18T21:54:28;6.8;;;3.4;;
73315;SDS011;61545;53.726;-0.444;2022-08-18T21:59:26;7.5;;;3.7;;
73315;SDS011;61545;53.726;-0.444;2022-08-18T22:04:27;7.5;;;3.7;;
73315;SDS011;61545;53.726;-0.444;2022-08-18T22:09:27;6.2;;;3.8;;
73315;SDS011;61545;53.726;-0.444;2022-08-18T22:14:29;6.7;;;3.9;;
73315;SDS011;61545;53.726;-0.444;2022-08-18T22:19:26;6.0;;;3.5;;
73315;SDS011;61545;53.726;-0.444;2022-08-18T22:24:29;9.1;;;4.2;;
73315;SDS011;61545;53.726;-0.444;2022-08-18T22:29:27;8.2;;;3.8;;
73315;SDS011;61545;53.726;-0.444;2022-08-18T22:34:28;8.2;;;3.8;;
73315;SDS011;61545;53.726;-0.444;2022-08-18T22:39:28;6.1;;;3.5;;
73315;SDS011;61545;53.726;-0.444;2022-08-18T22:44:26;8.4;;;4.2;;
73315;SDS011;61545;53.726;-0.444;2022-08-18T22:49:26;8.0;;;3.9;;
73315;SDS011;61545;53.726;-0.444;2022-08-18T22:54:26;8.7;;;3.9;;
73315;SDS011;61545;53.726;-0.444;2022-08-18T22:59:26;9.4;;;4.3;;
73315;SDS011;61545;53.726;-0.444;2022-08-18T23:04:26;9.4;;;4.3;;
73315;SDS011;61545;53.726;-0.444;2022-08-18T23:09:27;6.7;;;3.4;;
73315;SDS011;61545;53.726;-0.444;2022-08-18T23:14:26;5.8;;;3;;
73315;SDS011;61545;53.726;-0.444;2022-08-18T23:19:26;4.6;;;2.9;;
73315;SDS011;61545;53.726;-0.444;2022-08-18T23:24:26;6.0;;;3.4;;
73315;SDS011;61545;53.726;-0.444;2022-08-18T23:29:26;4.5;;;2.9;;
73315;SDS011;61545;53.726;-0.444;2022-08-18T23:34:26;4.5;;;2.9;;
73315;SDS011;61545;53.726;-0.444;2022-08-18T23:39:27;6.4;;;3.9;;
73315;SDS011;61545;53.726;-0.444;2022-08-18T23:44:26;12.4;;;3.8;;
73315;SDS011;61545;53.726;-0.444;2022-08-18T23:49:26;6.9;;;3.3;;
73315;SDS011;61545;53.726;-0.444;2022-08-18T23:54:27;4.9;;;2.7;;
73315;SDS011;61545;53.726;-0.444;2022-08-18T23:59:26;7.7;;;3;;
